sensor_id;sensor_type;location;lat;lon;timestamp;pressure;altitude;pressure_sealevel;temperature;humidity
36964;BME280;22878;48.616;35.326;2023-12-20T00:01:35;101048.92;;;12.01;100.00
36964;BME280;22878;48.616;35.326;2023-12-20T00:04:01;101056.52;;;11.99;100.00
36964;BME280;22878;48.616;35.326;2023-12-20T00:06:27;101063.60;;;11.93;100.00
36964;BME280;22878;48.616;35.326;2023-12-20T00:08:53;101068.95;;;11.94;100.00
36964;BME280;22878;48.616;35.326;2023-12-20T00:11:18;101072.04;;;12.01;100.00
36964;BME280;22878;48.616;35.326;2023-12-20T00:13:44;101072.59;;;11.95;100.00
36964;BME280;22878;48.616;35.326;2023-12-20T00:16:09;101067.27;;;12.06;100.00
36964;BME280;22878;48.616;35.326;2023-12-20T00:18:35;101058.02;;;11.97;100.00
36964;BME280;22878;48.616;35.326;2023-12-20T00:21:00;101054.16;;;11.95;100.00
36964;BME280;22878;48.616;35.326;2023-12-20T00:23:26;101042.54;;;12.00;99.93
36964;BME280;22878;48.616;35.326;2023-12-20T00:25:51;101031.65;;;11.97;99.95
36964;BME280;22878;48.616;35.326;2023-12-20T00:28:17;101035.69;;;11.95;100.00
36964;BME280;22878;48.616;35.326;2023-12-20T00:30:42;101035.05;;;11.85;99.97
36964;BME280;22878;48.616;35.326;2023-12-20T00:33:10;101035.11;;;11.90;100.00
36964;BME280;22878;48.616;35.326;2023-12-20T00:35:36;101028.70;;;12.39;97.21
36964;BME280;22878;48.616;35.326;2023-12-20T00:38:01;101025.42;;;12.42;95.64
36964;BME280;22878;48.616;35.326;2023-12-20T00:40:27;101030.60;;;12.47;95.54
36964;BME280;22878;48.616;35.326;2023-12-20T00:42:52;101025.73;;;12.50;94.37
36964;BME280;22878;48.616;35.326;2023-12-20T00:45:18;101018.77;;;12.47;94.06
36964;BME280;22878;48.616;35.326;2023-12-20T00:47:43;101021.64;;;12.52;93.62
36964;BME280;22878;48.616;35.326;2023-12-20T00:50:09;101020.33;;;12.50;93.08
36964;BME280;22878;48.616;35.326;2023-12-20T00:52:35;101015.77;;;12.55;93.04
36964;BME280;22878;48.616;35.326;2023-12-20T00:55:00;101018.06;;;12.40;93.23
36964;BME280;22878;48.616;35.326;2023-12-20T00:57:26;101016.98;;;12.40;93.10
36964;BME280;22878;48.616;35.326;2023-12-20T00:59:51;101016.96;;;12.39;92.87
36964;BME280;22878;48.616;35.326;2023-12-20T01:02:16;101023.51;;;12.38;92.24
36964;BME280;22878;48.616;35.326;2023-12-20T01:04:42;101026.48;;;12.45;92.05
36964;BME280;22878;48.616;35.326;2023-12-20T01:07:08;101028.98;;;12.41;91.89
36964;BME280;22878;48.616;35.326;2023-12-20T01:09:33;101030.48;;;12.38;92.12
36964;BME280;22878;48.616;35.326;2023-12-20T01:11:58;101030.37;;;12.29;92.84
36964;BME280;22878;48.616;35.326;2023-12-20T01:14:24;101027.16;;;12.27;92.69
36964;BME280;22878;48.616;35.326;2023-12-20T01:16:50;101027.58;;;12.08;94.35
36964;BME280;22878;48.616;35.326;2023-12-20T01:19:15;101028.25;;;12.19;93.72
36964;BME280;22878;48.616;35.326;2023-12-20T01:21:41;101024.90;;;12.07;94.39
36964;BME280;22878;48.616;35.326;2023-12-20T01:24:07;101026.01;;;11.71;98.26
36964;BME280;22878;48.616;35.326;2023-12-20T01:26:32;101026.73;;;11.73;99.17
36964;BME280;22878;48.616;35.326;2023-12-20T01:28:57;101026.61;;;11.78;99.13
36964;BME280;22878;48.616;35.326;2023-12-20T01:31:23;101021.04;;;11.87;98.62
36964;BME280;22878;48.616;35.326;2023-12-20T01:33:48;101020.34;;;11.95;97.54
36964;BME280;22878;48.616;35.326;2023-12-20T01:36:14;101019.64;;;12.02;96.89
36964;BME280;22878;48.616;35.326;2023-12-20T01:38:39;101015.34;;;11.97;97.36
36964;BME280;22878;48.616;35.326;2023-12-20T01:41:05;101011.77;;;12.03;96.41
36964;BME280;22878;48.616;35.326;2023-12-20T01:43:30;101008.63;;;11.95;96.32
36964;BME280;22878;48.616;35.326;2023-12-20T01:45:57;101010.64;;;11.79;97.70
36964;BME280;22878;48.616;35.326;2023-12-20T01:48:24;101007.05;;;11.81;98.02
36964;BME280;22878;48.616;35.326;2023-12-20T01:50:50;101008.39;;;12.00;96.66
36964;BME280;22878;48.616;35.326;2023-12-20T01:53:16;101000.05;;;11.91;96.74
36964;BME280;22878;48.616;35.326;2023-12-20T01:55:44;101002.01;;;11.98;96.26
36964;BME280;22878;48.616;35.326;2023-12-20T01:58:11;100999.08;;;12.11;95.21
36964;BME280;22878;48.616;35.326;2023-12-20T02:00:37;100996.61;;;11.90;96.35
36964;BME280;22878;48.616;35.326;2023-12-20T02:03:04;100995.05;;;11.93;96.58
36964;BME280;22878;48.616;35.326;2023-12-20T02:05:30;100989.38;;;11.82;97.33
36964;BME280;22878;48.616;35.326;2023-12-20T02:07:56;100987.19;;;12.03;95.99
36964;BME280;22878;48.616;35.326;2023-12-20T02:10:22;100984.73;;;11.81;96.64
36964;BME280;22878;48.616;35.326;2023-12-20T02:12:48;100986.66;;;11.73;98.02
36964;BME280;22878;48.616;35.326;2023-12-20T02:15:14;100983.39;;;11.94;96.19
36964;BME280;22878;48.616;35.326;2023-12-20T02:17:39;100984.11;;;12.03;95.11
36964;BME280;22878;48.616;35.326;2023-12-20T02:20:05;100977.61;;;12.02;93.96
36964;BME280;22878;48.616;35.326;2023-12-20T02:22:31;100973.92;;;11.91;94.26
36964;BME280;22878;48.616;35.326;2023-12-20T02:24:57;100975.47;;;11.84;94.80
36964;BME280;22878;48.616;35.326;2023-12-20T02:27:23;100980.56;;;11.75;95.34
36964;BME280;22878;48.616;35.326;2023-12-20T02:29:49;100977.35;;;11.71;96.09
36964;BME280;22878;48.616;35.326;2023-12-20T02:32:16;100978.16;;;11.83;96.13
36964;BME280;22878;48.616;35.326;2023-12-20T02:34:42;100974.92;;;11.88;95.54
36964;BME280;22878;48.616;35.326;2023-12-20T02:37:08;100972.27;;;11.82;96.43
36964;BME280;22878;48.616;35.326;2023-12-20T02:39:33;100962.54;;;11.75;97.28
36964;BME280;22878;48.616;35.326;2023-12-20T02:41:59;100959.35;;;11.68;98.19
36964;BME280;22878;48.616;35.326;2023-12-20T02:44:27;100954.83;;;11.77;97.85
36964;BME280;22878;48.616;35.326;2023-12-20T02:46:52;100947.98;;;11.84;97.07
36964;BME280;22878;48.616;35.326;2023-12-20T02:49:18;100952.27;;;11.85;96.87
36964;BME280;22878;48.616;35.326;2023-12-20T02:51:43;100951.10;;;11.89;96.45
36964;BME280;22878;48.616;35.326;2023-12-20T02:54:09;100951.19;;;11.87;96.25
36964;BME280;22878;48.616;35.326;2023-12-20T02:56:34;100954.21;;;11.86;96.18
36964;BME280;22878;48.616;35.326;2023-12-20T02:59:00;100948.39;;;11.89;95.97
36964;BME280;22878;48.616;35.326;2023-12-20T03:01:27;100936.89;;;11.55;97.98
36964;BME280;22878;48.616;35.326;2023-12-20T03:03:53;100936.31;;;11.56;98.49
36964;BME280;22878;48.616;35.326;2023-12-20T03:06:18;100938.63;;;11.69;97.51
36964;BME280;22878;48.616;35.326;2023-12-20T03:08:44;100943.48;;;11.56;98.00
36964;BME280;22878;48.616;35.326;2023-12-20T03:11:10;100944.73;;;11.76;96.40
36964;BME280;22878;48.616;35.326;2023-12-20T03:13:36;100943.55;;;11.85;94.91
36964;BME280;22878;48.616;35.326;2023-12-20T03:16:11;100942.70;;;11.58;96.88
36964;BME280;22878;48.616;35.326;2023-12-20T03:18:37;100937.73;;;11.52;97.41
36964;BME280;22878;48.616;35.326;2023-12-20T03:21:03;100938.63;;;11.50;98.09
36964;BME280;22878;48.616;35.326;2023-12-20T03:23:29;100930.85;;;11.61;97.75
36964;BME280;22878;48.616;35.326;2023-12-20T03:25:56;100937.10;;;11.55;99.05
36964;BME280;22878;48.616;35.326;2023-12-20T03:28:21;100938.61;;;11.60;99.06
36964;BME280;22878;48.616;35.326;2023-12-20T03:30:48;100944.48;;;11.47;99.48
36964;BME280;22878;48.616;35.326;2023-12-20T03:33:13;100944.75;;;11.40;100.00
36964;BME280;22878;48.616;35.326;2023-12-20T03:35:39;100938.41;;;11.63;99.29
36964;BME280;22878;48.616;35.326;2023-12-20T03:38:04;100936.11;;;11.72;98.54
36964;BME280;22878;48.616;35.326;2023-12-20T03:40:30;100935.55;;;11.62;97.84
36964;BME280;22878;48.616;35.326;2023-12-20T03:42:55;100937.34;;;11.49;98.25
36964;BME280;22878;48.616;35.326;2023-12-20T03:45:21;100942.91;;;11.45;98.19
36964;BME280;22878;48.616;35.326;2023-12-20T03:47:46;100949.77;;;11.52;97.07
36964;BME280;22878;48.616;35.326;2023-12-20T03:50:13;100954.01;;;11.41;97.47
36964;BME280;22878;48.616;35.326;2023-12-20T03:52:38;100955.67;;;11.41;96.96
36964;BME280;22878;48.616;35.326;2023-12-20T03:55:04;100958.47;;;11.40;96.75
36964;BME280;22878;48.616;35.326;2023-12-20T03:57:29;100957.70;;;11.27;97.81
36964;BME280;22878;48.616;35.326;2023-12-20T03:59:55;100959.69;;;11.38;97.50
36964;BME280;22878;48.616;35.326;2023-12-20T04:02:20;100960.05;;;11.47;97.09
36964;BME280;22878;48.616;35.326;2023-12-20T04:04:46;100959.98;;;11.47;97.44
36964;BME280;22878;48.616;35.326;2023-12-20T04:07:11;100961.27;;;11.53;97.20
36964;BME280;22878;48.616;35.326;2023-12-20T04:09:37;100960.14;;;11.65;96.00
36964;BME280;22878;48.616;35.326;2023-12-20T04:12:03;100957.33;;;11.59;95.78
36964;BME280;22878;48.616;35.326;2023-12-20T04:14:28;100953.23;;;11.53;96.21
36964;BME280;22878;48.616;35.326;2023-12-20T04:16:54;100948.16;;;11.52;96.50
36964;BME280;22878;48.616;35.326;2023-12-20T04:19:19;100950.21;;;11.53;96.94
36964;BME280;22878;48.616;35.326;2023-12-20T04:21:45;100947.16;;;11.56;96.94
36964;BME280;22878;48.616;35.326;2023-12-20T04:24:10;100944.85;;;11.57;96.90
36964;BME280;22878;48.616;35.326;2023-12-20T04:26:36;100942.87;;;11.52;97.02
36964;BME280;22878;48.616;35.326;2023-12-20T04:29:01;100940.45;;;11.55;97.01
36964;BME280;22878;48.616;35.326;2023-12-20T04:31:27;100930.55;;;11.71;95.70
36964;BME280;22878;48.616;35.326;2023-12-20T04:33:52;100928.16;;;11.56;96.66
36964;BME280;22878;48.616;35.326;2023-12-20T04:36:18;100928.15;;;11.61;96.37
36964;BME280;22878;48.616;35.326;2023-12-20T04:38:43;100927.36;;;11.60;96.18
36964;BME280;22878;48.616;35.326;2023-12-20T04:41:09;100928.91;;;11.56;96.40
36964;BME280;22878;48.616;35.326;2023-12-20T04:43:34;100928.14;;;11.59;96.15
36964;BME280;22878;48.616;35.326;2023-12-20T04:46:00;100925.70;;;11.59;95.54
36964;BME280;22878;48.616;35.326;2023-12-20T04:48:25;100921.70;;;11.38;96.73
36964;BME280;22878;48.616;35.326;2023-12-20T04:50:51;100921.02;;;11.23;98.48
36964;BME280;22878;48.616;35.326;2023-12-20T04:53:16;100924.31;;;11.28;98.62
36964;BME280;22878;48.616;35.326;2023-12-20T04:55:42;100926.39;;;11.32;97.55
36964;BME280;22878;48.616;35.326;2023-12-20T04:58:07;100934.16;;;11.37;97.43
36964;BME280;22878;48.616;35.326;2023-12-20T05:00:33;100935.61;;;11.36;97.33
36964;BME280;22878;48.616;35.326;2023-12-20T05:02:58;100939.41;;;11.40;96.91
36964;BME280;22878;48.616;35.326;2023-12-20T05:05:24;100944.81;;;11.34;96.94
36964;BME280;22878;48.616;35.326;2023-12-20T05:07:49;100942.55;;;11.36;97.54
36964;BME280;22878;48.616;35.326;2023-12-20T05:10:15;100945.82;;;11.39;96.53
36964;BME280;22878;48.616;35.326;2023-12-20T05:12:40;100946.69;;;11.33;97.32
36964;BME280;22878;48.616;35.326;2023-12-20T05:15:06;100948.32;;;11.33;97.18
36964;BME280;22878;48.616;35.326;2023-12-20T05:17:32;100949.70;;;11.14;98.93
36964;BME280;22878;48.616;35.326;2023-12-20T05:19:57;100947.71;;;11.09;99.60
36964;BME280;22878;48.616;35.326;2023-12-20T05:22:23;100945.73;;;10.86;100.00
36964;BME280;22878;48.616;35.326;2023-12-20T05:24:48;100947.18;;;10.86;100.00
36964;BME280;22878;48.616;35.326;2023-12-20T05:27:14;100942.23;;;10.96;99.96
36964;BME280;22878;48.616;35.326;2023-12-20T05:29:39;100946.92;;;10.96;100.00
36964;BME280;22878;48.616;35.326;2023-12-20T05:32:05;100946.95;;;10.90;100.00
36964;BME280;22878;48.616;35.326;2023-12-20T05:34:31;100947.75;;;10.93;100.00
36964;BME280;22878;48.616;35.326;2023-12-20T05:36:57;100950.04;;;11.00;100.00
36964;BME280;22878;48.616;35.326;2023-12-20T05:39:23;100954.00;;;10.92;100.00
36964;BME280;22878;48.616;35.326;2023-12-20T05:41:49;100954.08;;;10.91;100.00
36964;BME280;22878;48.616;35.326;2023-12-20T05:44:15;100953.98;;;10.90;100.00
36964;BME280;22878;48.616;35.326;2023-12-20T05:46:40;100957.51;;;10.87;100.00
36964;BME280;22878;48.616;35.326;2023-12-20T05:49:06;100961.02;;;10.93;100.00
36964;BME280;22878;48.616;35.326;2023-12-20T05:51:31;100958.17;;;11.15;100.00
36964;BME280;22878;48.616;35.326;2023-12-20T05:53:58;100960.15;;;11.18;100.00
36964;BME280;22878;48.616;35.326;2023-12-20T05:56:24;100961.75;;;11.22;100.00
36964;BME280;22878;48.616;35.326;2023-12-20T05:58:49;100964.88;;;11.18;100.00
36964;BME280;22878;48.616;35.326;2023-12-20T06:01:15;100966.63;;;11.19;100.00
36964;BME280;22878;48.616;35.326;2023-12-20T06:03:42;100977.63;;;11.25;100.00
36964;BME280;22878;48.616;35.326;2023-12-20T06:06:09;100975.33;;;11.26;100.00
36964;BME280;22878;48.616;35.326;2023-12-20T06:08:34;100968.00;;;11.21;100.00
36964;BME280;22878;48.616;35.326;2023-12-20T06:11:00;100967.11;;;11.35;100.00
36964;BME280;22878;48.616;35.326;2023-12-20T06:13:25;100963.13;;;11.43;100.00
36964;BME280;22878;48.616;35.326;2023-12-20T06:15:53;100963.59;;;11.52;100.00
36964;BME280;22878;48.616;35.326;2023-12-20T06:18:19;100962.64;;;11.55;100.00
36964;BME280;22878;48.616;35.326;2023-12-20T06:20:45;100965.19;;;11.61;100.00
36964;BME280;22878;48.616;35.326;2023-12-20T06:23:10;100962.98;;;11.71;100.00
36964;BME280;22878;48.616;35.326;2023-12-20T06:25:36;100957.98;;;11.78;100.00
36964;BME280;22878;48.616;35.326;2023-12-20T06:28:01;100960.98;;;11.67;100.00
36964;BME280;22878;48.616;35.326;2023-12-20T06:30:27;100958.47;;;11.53;100.00
36964;BME280;22878;48.616;35.326;2023-12-20T06:32:53;100957.91;;;11.63;100.00
36964;BME280;22878;48.616;35.326;2023-12-20T06:35:19;100959.34;;;11.60;100.00
36964;BME280;22878;48.616;35.326;2023-12-20T06:37:45;100954.90;;;11.58;100.00
36964;BME280;22878;48.616;35.326;2023-12-20T06:40:11;100956.48;;;11.73;100.00
36964;BME280;22878;48.616;35.326;2023-12-20T06:42:37;100956.35;;;11.72;100.00
36964;BME280;22878;48.616;35.326;2023-12-20T06:45:03;100952.96;;;11.79;100.00
36964;BME280;22878;48.616;35.326;2023-12-20T06:47:29;100957.66;;;11.91;100.00
36964;BME280;22878;48.616;35.326;2023-12-20T06:49:57;100958.41;;;11.99;100.00
36964;BME280;22878;48.616;35.326;2023-12-20T06:52:26;100958.52;;;12.34;100.00
36964;BME280;22878;48.616;35.326;2023-12-20T06:54:51;100957.07;;;12.35;100.00
36964;BME280;22878;48.616;35.326;2023-12-20T06:57:20;100950.16;;;12.48;100.00
36964;BME280;22878;48.616;35.326;2023-12-20T06:59:46;100952.35;;;12.44;99.95
36964;BME280;22878;48.616;35.326;2023-12-20T07:02:11;100951.98;;;12.58;100.00
36964;BME280;22878;48.616;35.326;2023-12-20T07:04:40;100948.14;;;12.58;100.00
36964;BME280;22878;48.616;35.326;2023-12-20T07:07:06;100951.40;;;12.76;99.26
36964;BME280;22878;48.616;35.326;2023-12-20T07:09:33;100950.26;;;12.75;99.68
36964;BME280;22878;48.616;35.326;2023-12-20T07:11:58;100949.60;;;12.73;99.92
36964;BME280;22878;48.616;35.326;2023-12-20T07:14:24;100945.57;;;12.67;100.00
36964;BME280;22878;48.616;35.326;2023-12-20T07:16:50;100943.98;;;12.75;100.00
36964;BME280;22878;48.616;35.326;2023-12-20T07:19:15;100940.08;;;12.89;100.00
36964;BME280;22878;48.616;35.326;2023-12-20T07:21:41;100940.34;;;12.89;100.00
36964;BME280;22878;48.616;35.326;2023-12-20T07:24:09;100935.62;;;13.03;100.00
36964;BME280;22878;48.616;35.326;2023-12-20T07:26:35;100929.33;;;12.94;100.00
36964;BME280;22878;48.616;35.326;2023-12-20T07:29:03;100927.30;;;12.89;100.00
36964;BME280;22878;48.616;35.326;2023-12-20T07:31:29;100925.85;;;12.91;100.00
36964;BME280;22878;48.616;35.326;2023-12-20T07:33:55;100925.36;;;12.93;100.00
36964;BME280;22878;48.616;35.326;2023-12-20T07:36:20;100925.89;;;12.88;100.00
36964;BME280;22878;48.616;35.326;2023-12-20T07:38:46;100924.52;;;12.97;100.00
36964;BME280;22878;48.616;35.326;2023-12-20T07:41:12;100921.36;;;13.17;100.00
36964;BME280;22878;48.616;35.326;2023-12-20T07:43:38;100919.33;;;13.32;99.90
36964;BME280;22878;48.616;35.326;2023-12-20T07:46:05;100915.43;;;13.29;99.26
36964;BME280;22878;48.616;35.326;2023-12-20T07:48:30;100915.93;;;13.49;98.91
36964;BME280;22878;48.616;35.326;2023-12-20T07:50:56;100915.11;;;13.58;98.74
36964;BME280;22878;48.616;35.326;2023-12-20T07:53:21;100911.51;;;13.90;97.73
36964;BME280;22878;48.616;35.326;2023-12-20T07:55:47;100914.46;;;14.17;93.58
36964;BME280;22878;48.616;35.326;2023-12-20T07:58:12;100910.94;;;14.33;93.60
36964;BME280;22878;48.616;35.326;2023-12-20T08:00:38;100916.08;;;14.67;92.66
36964;BME280;22878;48.616;35.326;2023-12-20T08:03:04;100926.49;;;14.80;90.11
36964;BME280;22878;48.616;35.326;2023-12-20T08:05:30;100929.86;;;14.76;89.38
36964;BME280;22878;48.616;35.326;2023-12-20T08:10:44;100933.31;;;14.70;89.03
36964;BME280;22878;48.616;35.326;2023-12-20T08:13:09;100933.39;;;14.49;89.73
36964;BME280;22878;48.616;35.326;2023-12-20T08:15:35;100939.05;;;14.41;90.40
36964;BME280;22878;48.616;35.326;2023-12-20T08:18:02;100936.16;;;14.46;90.42
36964;BME280;22878;48.616;35.326;2023-12-20T08:20:31;100937.05;;;14.28;89.99
36964;BME280;22878;48.616;35.326;2023-12-20T08:22:56;100934.94;;;14.19;90.35
36964;BME280;22878;48.616;35.326;2023-12-20T08:25:25;100932.50;;;14.22;89.69
36964;BME280;22878;48.616;35.326;2023-12-20T08:27:53;100935.89;;;14.12;88.82
36964;BME280;22878;48.616;35.326;2023-12-20T08:30:22;100939.73;;;14.13;88.62
36964;BME280;22878;48.616;35.326;2023-12-20T08:32:50;100941.87;;;14.05;89.42
36964;BME280;22878;48.616;35.326;2023-12-20T08:35:16;100933.83;;;14.13;88.77
36964;BME280;22878;48.616;35.326;2023-12-20T08:37:45;100925.13;;;13.98;89.94
36964;BME280;22878;48.616;35.326;2023-12-20T08:40:10;100915.15;;;14.23;89.20
36964;BME280;22878;48.616;35.326;2023-12-20T08:42:36;100906.91;;;14.19;88.77
36964;BME280;22878;48.616;35.326;2023-12-20T08:45:04;100893.46;;;14.08;88.87
36964;BME280;22878;48.616;35.326;2023-12-20T08:47:30;100888.62;;;13.96;89.96
36964;BME280;22878;48.616;35.326;2023-12-20T08:49:55;100894.79;;;13.96;90.99
36964;BME280;22878;48.616;35.326;2023-12-20T08:52:26;100889.92;;;13.96;90.22
36964;BME280;22878;48.616;35.326;2023-12-20T08:54:55;100887.80;;;13.92;90.01
36964;BME280;22878;48.616;35.326;2023-12-20T08:57:20;100879.42;;;13.58;91.60
36964;BME280;22878;48.616;35.326;2023-12-20T08:59:50;100877.25;;;13.72;90.80
36964;BME280;22878;48.616;35.326;2023-12-20T09:02:18;100870.88;;;13.76;91.09
36964;BME280;22878;48.616;35.326;2023-12-20T09:04:44;100871.60;;;13.74;91.37
36964;BME280;22878;48.616;35.326;2023-12-20T09:07:27;100868.14;;;13.88;90.86
36964;BME280;22878;48.616;35.326;2023-12-20T09:09:55;100857.16;;;13.86;90.06
36964;BME280;22878;48.616;35.326;2023-12-20T09:12:21;100848.16;;;13.62;90.91
36964;BME280;22878;48.616;35.326;2023-12-20T09:14:49;100850.60;;;13.87;91.73
36964;BME280;22878;48.616;35.326;2023-12-20T09:17:15;100850.16;;;13.88;90.43
36964;BME280;22878;48.616;35.326;2023-12-20T09:19:41;100839.98;;;13.85;91.53
36964;BME280;22878;48.616;35.326;2023-12-20T09:22:09;100839.39;;;13.86;92.98
36964;BME280;22878;48.616;35.326;2023-12-20T09:24:35;100838.27;;;13.98;92.87
36964;BME280;22878;48.616;35.326;2023-12-20T09:27:01;100835.52;;;14.08;93.48
36964;BME280;22878;48.616;35.326;2023-12-20T09:29:26;100835.25;;;13.94;91.31
36964;BME280;22878;48.616;35.326;2023-12-20T09:31:52;100841.33;;;13.86;90.79
36964;BME280;22878;48.616;35.326;2023-12-20T09:34:18;100844.96;;;14.05;91.34
36964;BME280;22878;48.616;35.326;2023-12-20T09:36:43;100834.15;;;13.95;90.58
36964;BME280;22878;48.616;35.326;2023-12-20T09:39:16;100834.34;;;13.88;90.20
36964;BME280;22878;48.616;35.326;2023-12-20T09:41:45;100826.63;;;13.95;90.54
36964;BME280;22878;48.616;35.326;2023-12-20T09:44:16;100820.17;;;13.95;90.59
36964;BME280;22878;48.616;35.326;2023-12-20T09:46:45;100821.28;;;14.16;90.29
36964;BME280;22878;48.616;35.326;2023-12-20T09:49:16;100810.70;;;14.29;90.16
36964;BME280;22878;48.616;35.326;2023-12-20T09:51:42;100810.14;;;14.34;89.25
36964;BME280;22878;48.616;35.326;2023-12-20T09:54:09;100811.13;;;14.20;89.44
36964;BME280;22878;48.616;35.326;2023-12-20T09:56:35;100807.59;;;14.44;88.19
36964;BME280;22878;48.616;35.326;2023-12-20T09:59:00;100806.86;;;14.27;87.22
36964;BME280;22878;48.616;35.326;2023-12-20T10:01:28;100805.05;;;14.31;88.10
36964;BME280;22878;48.616;35.326;2023-12-20T10:03:54;100794.18;;;14.37;87.71
36964;BME280;22878;48.616;35.326;2023-12-20T10:06:21;100794.82;;;14.49;85.96
36964;BME280;22878;48.616;35.326;2023-12-20T10:08:47;100784.48;;;14.57;85.24
36964;BME280;22878;48.616;35.326;2023-12-20T10:11:13;100772.89;;;14.63;84.75
36964;BME280;22878;48.616;35.326;2023-12-20T10:13:39;100768.48;;;14.65;85.35
36964;BME280;22878;48.616;35.326;2023-12-20T10:16:06;100770.61;;;14.63;85.17
36964;BME280;22878;48.616;35.326;2023-12-20T10:18:35;100763.40;;;14.62;85.04
36964;BME280;22878;48.616;35.326;2023-12-20T10:21:01;100760.42;;;14.69;84.27
36964;BME280;22878;48.616;35.326;2023-12-20T10:23:28;100759.89;;;14.74;84.81
36964;BME280;22878;48.616;35.326;2023-12-20T10:25:58;100759.98;;;14.75;84.08
36964;BME280;22878;48.616;35.326;2023-12-20T10:28:28;100763.34;;;14.69;84.20
36964;BME280;22878;48.616;35.326;2023-12-20T10:31:02;100769.52;;;14.76;84.61
36964;BME280;22878;48.616;35.326;2023-12-20T10:33:44;100770.74;;;14.73;84.37
36964;BME280;22878;48.616;35.326;2023-12-20T10:36:17;100771.35;;;14.73;82.95
36964;BME280;22878;48.616;35.326;2023-12-20T10:38:46;100779.77;;;14.63;82.78
36964;BME280;22878;48.616;35.326;2023-12-20T10:41:37;100777.45;;;14.49;83.81
36964;BME280;22878;48.616;35.326;2023-12-20T10:44:20;100780.12;;;14.30;83.75
36964;BME280;22878;48.616;35.326;2023-12-20T10:46:51;100778.98;;;14.19;84.27
36964;BME280;22878;48.616;35.326;2023-12-20T10:49:23;100778.50;;;14.28;85.17
36964;BME280;22878;48.616;35.326;2023-12-20T10:52:05;100777.35;;;14.19;85.25
36964;BME280;22878;48.616;35.326;2023-12-20T10:54:38;100781.05;;;14.05;86.16
36964;BME280;22878;48.616;35.326;2023-12-20T10:57:08;100780.34;;;13.96;87.22
36964;BME280;22878;48.616;35.326;2023-12-20T10:59:36;100776.70;;;14.10;87.44
36964;BME280;22878;48.616;35.326;2023-12-20T11:05:19;100764.04;;;14.06;86.25
36964;BME280;22878;48.616;35.326;2023-12-20T11:07:57;100758.45;;;14.06;86.29
36964;BME280;22878;48.616;35.326;2023-12-20T11:13:22;100758.91;;;14.20;85.88
36964;BME280;22878;48.616;35.326;2023-12-20T11:16:04;100764.54;;;14.42;85.13
36964;BME280;22878;48.616;35.326;2023-12-20T11:19:12;100759.95;;;14.41;84.58
36964;BME280;22878;48.616;35.326;2023-12-20T11:21:40;100756.34;;;14.53;85.16
36964;BME280;22878;48.616;35.326;2023-12-20T11:24:12;100753.84;;;14.55;84.97
36964;BME280;22878;48.616;35.326;2023-12-20T11:26:57;100753.88;;;14.72;84.81
36964;BME280;22878;48.616;35.326;2023-12-20T11:29:34;100750.90;;;14.91;84.22
36964;BME280;22878;48.616;35.326;2023-12-20T11:32:03;100753.25;;;14.90;82.85
36964;BME280;22878;48.616;35.326;2023-12-20T11:34:41;100753.20;;;14.95;82.76
36964;BME280;22878;48.616;35.326;2023-12-20T11:37:07;100750.92;;;15.06;81.74
36964;BME280;22878;48.616;35.326;2023-12-20T11:39:32;100749.40;;;15.13;81.77
36964;BME280;22878;48.616;35.326;2023-12-20T11:42:04;100742.33;;;15.09;81.44
36964;BME280;22878;48.616;35.326;2023-12-20T11:44:31;100738.48;;;14.97;81.41
36964;BME280;22878;48.616;35.326;2023-12-20T11:46:57;100732.44;;;15.04;81.24
36964;BME280;22878;48.616;35.326;2023-12-20T11:49:24;100720.30;;;14.97;80.89
36964;BME280;22878;48.616;35.326;2023-12-20T11:51:50;100713.95;;;14.94;81.45
36964;BME280;22878;48.616;35.326;2023-12-20T11:54:16;100705.27;;;15.07;80.92
36964;BME280;22878;48.616;35.326;2023-12-20T11:56:42;100699.98;;;15.25;81.49
36964;BME280;22878;48.616;35.326;2023-12-20T11:59:08;100697.94;;;15.23;80.03
36964;BME280;22878;48.616;35.326;2023-12-20T12:01:36;100703.88;;;15.00;80.02
36964;BME280;22878;48.616;35.326;2023-12-20T12:04:03;100707.47;;;15.04;80.74
36964;BME280;22878;48.616;35.326;2023-12-20T12:06:29;100704.68;;;15.06;81.28
36964;BME280;22878;48.616;35.326;2023-12-20T12:08:54;100708.77;;;15.14;81.61
36964;BME280;22878;48.616;35.326;2023-12-20T12:11:21;100704.23;;;15.18;81.17
36964;BME280;22878;48.616;35.326;2023-12-20T12:13:47;100707.91;;;15.14;79.88
36964;BME280;22878;48.616;35.326;2023-12-20T12:16:16;100710.04;;;15.33;81.15
36964;BME280;22878;48.616;35.326;2023-12-20T12:18:42;100711.00;;;15.25;80.64
36964;BME280;22878;48.616;35.326;2023-12-20T12:21:07;100712.54;;;15.23;80.42
36964;BME280;22878;48.616;35.326;2023-12-20T12:23:36;100719.90;;;15.15;80.43
36964;BME280;22878;48.616;35.326;2023-12-20T12:26:04;100721.52;;;15.06;80.75
36964;BME280;22878;48.616;35.326;2023-12-20T12:28:29;100719.73;;;15.00;81.02
36964;BME280;22878;48.616;35.326;2023-12-20T12:30:59;100719.67;;;15.00;81.03
36964;BME280;22878;48.616;35.326;2023-12-20T12:33:26;100713.08;;;14.91;81.75
36964;BME280;22878;48.616;35.326;2023-12-20T12:35:51;100715.03;;;14.79;81.52
36964;BME280;22878;48.616;35.326;2023-12-20T12:38:23;100716.79;;;14.94;81.74
36964;BME280;22878;48.616;35.326;2023-12-20T12:40:49;100712.00;;;14.89;81.52
36964;BME280;22878;48.616;35.326;2023-12-20T12:43:16;100711.02;;;15.03;81.91
36964;BME280;22878;48.616;35.326;2023-12-20T12:45:41;100706.55;;;15.03;81.76